createdAt,value
2018-02-19T00:00:33.162Z,77.40
2018-02-19T00:03:00.786Z,77.40
2018-02-19T00:05:28.381Z,77.40
2018-02-19T00:07:56.022Z,77.30
2018-02-19T00:10:24.401Z,76.90
2018-02-19T00:12:52.765Z,76.90
2018-02-19T00:15:20.364Z,76.90
2018-02-19T00:17:47.993Z,77.00
2018-02-19T00:20:16.372Z,76.80
2018-02-19T00:22:44.755Z,76.80
2018-02-19T00:25:13.127Z,76.80
2018-02-19T00:27:41.532Z,76.70
2018-02-19T00:30:09.176Z,76.70
2018-02-19T00:32:37.584Z,76.80
2018-02-19T00:35:05.210Z,76.70
2018-02-19T00:37:32.809Z,76.80
2018-02-19T00:40:00.434Z,76.90
2018-02-19T00:42:28.828Z,77.10
2018-02-19T00:44:56.443Z,77.10
2018-02-19T00:47:24.036Z,77.10
2018-02-19T00:49:52.462Z,77.10
2018-02-19T00:52:20.086Z,77.10
2018-02-19T00:54:48.456Z,77.00
2018-02-19T00:57:16.855Z,77.00
2018-02-19T00:59:44.453Z,76.90
2018-02-19T01:02:12.094Z,76.90
2018-02-19T01:04:40.470Z,76.70
2018-02-19T01:07:08.094Z,76.70
2018-02-19T01:09:36.463Z,76.40
2018-02-19T01:12:04.187Z,76.30
2018-02-19T01:14:31.782Z,76.30
2018-02-19T01:16:59.374Z,76.20
2018-02-19T01:19:26.980Z,76.10
2018-02-19T01:21:54.606Z,76.00
2018-02-19T01:24:22.290Z,76.00
2018-02-19T01:26:49.954Z,75.80
2018-02-19T01:29:17.588Z,75.80
2018-02-19T01:31:45.207Z,75.80
2018-02-19T01:34:12.947Z,75.80
2018-02-19T01:36:40.571Z,75.80
2018-02-19T01:39:08.182Z,75.60
2018-02-19T01:41:35.796Z,75.60
2018-02-19T01:44:03.421Z,75.50
2018-02-19T01:46:31.789Z,76.20
2018-02-19T01:48:59.419Z,75.50
2018-02-19T01:51:27.017Z,75.30
2018-02-19T01:53:54.623Z,75.30
2018-02-19T01:56:22.238Z,75.10
2018-02-19T01:58:49.867Z,75.10
2018-02-19T02:01:17.492Z,75.00
2018-02-19T02:03:45.884Z,75.00
2018-02-19T02:06:14.266Z,75.00
2018-02-19T02:08:41.945Z,74.90
2018-02-19T02:11:09.584Z,74.90
2018-02-19T02:13:37.249Z,74.90
2018-02-19T02:16:04.876Z,74.80
2018-02-19T02:18:33.275Z,75.20
2018-02-19T02:21:01.676Z,74.80
2018-02-19T02:23:29.307Z,74.80
2018-02-19T02:25:57.669Z,74.90
2018-02-19T02:28:25.272Z,74.80
2018-02-19T02:30:52.904Z,74.80
2018-02-19T02:33:21.293Z,75.00
2018-02-19T02:35:49.678Z,75.00
2018-02-19T02:38:17.309Z,74.90
2018-02-19T02:40:45.032Z,74.90
2018-02-19T02:43:12.663Z,74.10
2018-02-19T02:45:40.299Z,74.70
2018-02-19T02:48:07.911Z,74.70
2018-02-19T02:50:35.530Z,74.80
2018-02-19T02:53:03.922Z,75.00
2018-02-19T02:55:32.309Z,74.90
2018-02-19T02:57:59.928Z,74.80
2018-02-19T03:00:29.073Z,74.80
2018-02-19T03:02:56.684Z,74.80
2018-02-19T03:05:24.297Z,74.70
2018-02-19T03:07:51.910Z,74.60
2018-02-19T03:10:19.639Z,74.50
2018-02-19T03:12:47.255Z,74.50
2018-02-19T03:15:15.624Z,74.40
2018-02-19T03:17:44.001Z,74.40
2018-02-19T03:20:11.604Z,74.20
2018-02-19T03:22:39.234Z,74.20
2018-02-19T03:25:07.659Z,74.30
2018-02-19T03:27:35.283Z,74.30
2018-02-19T03:30:03.701Z,74.30
2018-02-19T03:32:31.320Z,75.10
2018-02-19T03:34:59.696Z,74.40
2018-02-19T03:37:28.052Z,74.30
2018-02-19T03:39:55.796Z,74.30
2018-02-19T03:42:23.389Z,74.30
2018-02-19T03:44:51.778Z,74.30
2018-02-19T03:47:20.209Z,74.30
2018-02-19T03:49:47.833Z,74.30
2018-02-19T03:52:15.469Z,74.40
2018-02-19T03:54:43.882Z,74.40
2018-02-19T03:57:11.667Z,74.40
2018-02-19T03:59:39.266Z,74.30
2018-02-19T04:02:07.651Z,74.20
2018-02-19T04:04:37.102Z,74.10
2018-02-19T04:07:04.726Z,74.10
2018-02-19T04:09:33.114Z,74.10
2018-02-19T04:12:02.396Z,73.90
2018-02-19T04:14:30.025Z,73.90
2018-02-19T04:16:57.604Z,73.80
2018-02-19T04:19:26.001Z,73.70
2018-02-19T04:21:54.373Z,73.70
2018-02-19T04:24:22.753Z,73.60
2018-02-19T04:26:51.125Z,73.60
2018-02-19T04:29:18.748Z,73.60
2018-02-19T04:31:46.411Z,73.50
2018-02-19T04:34:14.028Z,73.50
2018-02-19T04:36:42.422Z,73.30
2018-02-19T04:39:10.047Z,73.30
2018-02-19T04:41:37.671Z,73.30
2018-02-19T04:44:05.383Z,73.30
2018-02-19T04:46:36.674Z,73.30
2018-02-19T04:49:04.271Z,73.40
2018-02-19T04:51:32.661Z,73.10
2018-02-19T04:54:00.270Z,73.20
2018-02-19T04:56:27.895Z,73.10
2018-02-19T04:58:56.246Z,73.30
2018-02-19T05:01:23.767Z,73.20
2018-02-19T05:03:51.282Z,73.40
2018-02-19T05:06:18.779Z,73.40
2018-02-19T05:08:46.284Z,73.30
2018-02-19T05:11:13.787Z,73.20
2018-02-19T05:13:42.079Z,73.10
2018-02-19T05:16:09.591Z,73.10
2018-02-19T05:18:37.863Z,73.20
2018-02-19T05:21:05.359Z,73.20
2018-02-19T05:23:33.764Z,73.30
2018-02-19T05:26:01.271Z,73.20
2018-02-19T05:28:28.783Z,73.10
2018-02-19T05:30:56.299Z,73.10
2018-02-19T05:33:24.579Z,73.10
2018-02-19T05:35:52.843Z,73.10
2018-02-19T05:38:20.360Z,73.00
2018-02-19T05:40:47.856Z,72.90
2018-02-19T05:43:15.355Z,72.90
2018-02-19T05:45:42.900Z,72.80
2018-02-19T05:48:11.171Z,72.70
2018-02-19T05:50:39.434Z,72.70
2018-02-19T05:53:06.943Z,72.70
2018-02-19T05:55:34.439Z,72.70
2018-02-19T05:58:01.943Z,72.70
2018-02-19T06:00:29.446Z,72.60
2018-02-19T06:02:56.969Z,72.60
2018-02-19T06:05:24.484Z,72.60
2018-02-19T06:07:52.751Z,72.80
2018-02-19T06:10:20.278Z,72.80
2018-02-19T06:12:47.784Z,72.90
2018-02-19T06:15:16.052Z,73.00
2018-02-19T06:17:43.657Z,73.00
2018-02-19T06:20:11.171Z,73.00
2018-02-19T06:22:39.431Z,73.30
2018-02-19T06:25:06.951Z,73.30
2018-02-19T06:27:34.462Z,73.30
2018-02-19T06:30:01.966Z,73.30
2018-02-19T06:32:29.603Z,73.30
2018-02-19T06:34:57.904Z,73.40
2018-02-19T06:37:25.398Z,73.40
2018-02-19T06:39:52.905Z,73.20
2018-02-19T06:42:20.419Z,73.30
2018-02-19T06:44:47.943Z,73.10
2018-02-19T06:47:15.443Z,73.10
2018-02-19T06:49:42.956Z,73.20
2018-02-19T06:52:10.471Z,73.40
2018-02-19T06:54:37.970Z,73.50
2018-02-19T06:57:05.490Z,73.60
2018-02-19T06:59:33.012Z,73.70
2018-02-19T07:02:00.518Z,74.10
2018-02-19T07:04:28.787Z,74.60
2018-02-19T07:06:57.052Z,75.00
2018-02-19T07:09:24.567Z,75.00
2018-02-19T07:11:52.063Z,75.40
2018-02-19T07:14:19.599Z,75.90
2018-02-19T07:16:47.132Z,76.30
2018-02-19T07:19:14.631Z,77.00
2018-02-19T07:21:42.131Z,77.00
2018-02-19T07:24:10.408Z,77.70
2018-02-19T07:26:38.684Z,78.00
2018-02-19T07:29:06.964Z,78.10
2018-02-19T07:31:34.459Z,78.10
2018-02-19T07:34:01.978Z,78.10
2018-02-19T07:36:29.493Z,78.10
2018-02-19T07:38:56.987Z,78.20
2018-02-19T07:41:25.263Z,78.10
2018-02-19T07:43:53.532Z,78.40
2018-02-19T07:46:21.803Z,78.70
2018-02-19T07:48:50.087Z,78.90
2018-02-19T07:51:18.363Z,79.10
2018-02-19T07:53:46.631Z,79.80
2018-02-19T07:56:14.957Z,79.90
2018-02-19T07:58:43.204Z,80.00
2018-02-19T08:01:11.468Z,80.10
2018-02-19T08:03:39.744Z,80.10
2018-02-19T08:06:08.006Z,79.70
2018-02-19T08:08:35.519Z,79.70
2018-02-19T08:11:03.030Z,79.10
2018-02-19T08:13:30.552Z,79.00
2018-02-19T08:15:58.068Z,79.30
2018-02-19T08:18:26.343Z,78.80
2018-02-19T08:20:54.615Z,78.90
2018-02-19T08:23:22.881Z,79.40
2018-02-19T08:25:51.156Z,79.80
2018-02-19T08:28:19.439Z,80.20
2018-02-19T08:30:47.726Z,80.10
2018-02-19T08:33:15.227Z,80.10
2018-02-19T08:35:42.736Z,79.70
2018-02-19T08:38:11.019Z,80.70
2018-02-19T08:40:39.283Z,79.90
2018-02-19T08:43:07.543Z,80.00
2018-02-19T08:45:35.040Z,79.80
2018-02-19T08:48:02.539Z,80.20
2018-02-19T08:50:30.051Z,80.50
2018-02-19T08:52:57.559Z,80.50
2018-02-19T08:55:25.064Z,80.40
2018-02-19T08:57:52.571Z,80.90
2018-02-19T09:00:20.199Z,81.20
2018-02-19T09:02:47.704Z,81.10
2018-02-19T09:05:15.967Z,81.60
2018-02-19T09:07:43.474Z,81.50
2018-02-19T09:10:11.726Z,82.00
2018-02-19T09:12:40.029Z,82.00
2018-02-19T09:15:07.507Z,82.00
2018-02-19T09:17:35.022Z,82.10
2018-02-19T09:20:02.518Z,82.60
2018-02-19T09:22:30.036Z,81.80
2018-02-19T09:24:57.548Z,81.80
2018-02-19T09:27:25.050Z,81.90
2018-02-19T09:29:52.554Z,82.00
2018-02-19T09:32:20.070Z,81.50
2018-02-19T09:34:48.348Z,81.90
2018-02-19T09:41:52.811Z,81.20
2018-02-19T09:44:22.599Z,80.40
2018-02-19T09:46:50.126Z,80.30
2018-02-19T09:49:17.730Z,80.30
2018-02-19T09:51:45.995Z,78.40
2018-02-19T09:54:13.504Z,78.70
2018-02-19T09:56:41.027Z,77.90
2018-02-19T09:59:09.292Z,78.00
2018-02-19T10:01:36.807Z,77.90
2018-02-19T10:04:04.303Z,77.90
2018-02-19T10:06:31.814Z,76.60
2018-02-19T10:08:59.347Z,75.10
2018-02-19T10:11:27.628Z,72.20
2018-02-19T10:13:55.903Z,71.20
2018-02-19T10:16:24.161Z,70.60
2018-02-19T10:18:51.658Z,70.60
2018-02-19T10:21:19.205Z,70.20
2018-02-19T10:23:46.709Z,69.50
2018-02-19T10:26:14.224Z,68.90
2018-02-19T10:28:41.724Z,67.90
2018-02-19T10:31:09.241Z,68.90
2018-02-19T10:33:36.745Z,68.70
2018-02-19T10:36:04.246Z,67.90
2018-02-19T10:38:32.511Z,66.00
2018-02-19T10:41:00.782Z,65.90
2018-02-19T10:43:28.283Z,65.90
2018-02-19T10:45:55.779Z,66.30
2018-02-19T10:48:23.302Z,64.70
2018-02-19T10:50:50.803Z,63.60
2018-02-19T10:53:18.296Z,63.20
2018-02-19T10:55:45.799Z,61.60
2018-02-19T10:58:13.303Z,61.80
2018-02-19T11:00:45.500Z,63.60
2018-02-19T11:03:12.990Z,63.60
2018-02-19T11:05:40.498Z,61.00
2018-02-19T11:08:07.998Z,63.40
2018-02-19T11:10:35.495Z,62.90
2018-02-19T11:13:03.755Z,62.80
2018-02-19T11:15:32.770Z,61.70
2018-02-19T11:18:01.027Z,61.70
2018-02-19T11:20:28.540Z,61.70
2018-02-19T11:22:57.111Z,61.20
2018-02-19T11:25:24.651Z,61.60
2018-02-19T11:27:52.953Z,62.10
2018-02-19T11:30:20.449Z,62.10
2018-02-19T11:32:47.967Z,61.70
2018-02-19T11:35:15.479Z,61.30
2018-02-19T11:37:42.995Z,61.40
2018-02-19T11:40:10.483Z,61.10
2018-02-19T11:42:37.986Z,60.70
2018-02-19T11:45:05.495Z,59.70
2018-02-19T11:47:33.011Z,59.70
2018-02-19T11:50:00.506Z,59.70
2018-02-19T11:52:28.025Z,58.20
2018-02-19T11:54:55.523Z,58.00
2018-02-19T11:57:23.035Z,58.70
2018-02-19T11:59:51.350Z,57.60
2018-02-19T12:02:18.815Z,57.60
2018-02-19T12:04:46.320Z,57.30
2018-02-19T12:07:14.578Z,57.20
2018-02-19T12:09:42.091Z,57.20
2018-02-19T12:12:09.583Z,55.60
2018-02-19T12:14:37.092Z,56.40
2018-02-19T12:17:04.583Z,55.00
2018-02-19T12:19:32.104Z,55.30
2018-02-19T12:21:59.640Z,55.80
2018-02-19T12:24:27.912Z,55.90
2018-02-19T12:26:56.183Z,54.40
2018-02-19T12:29:23.683Z,54.40
2018-02-19T12:31:51.195Z,53.50
2018-02-19T12:34:18.699Z,54.10
2018-02-19T12:36:46.261Z,52.90
2018-02-19T12:39:13.758Z,51.60
2018-02-19T12:41:42.770Z,51.80
2018-02-19T12:44:11.044Z,52.00
2018-02-19T12:46:39.324Z,52.20
2018-02-19T12:49:06.903Z,52.20
2018-02-19T12:51:35.221Z,50.10
2018-02-19T12:54:02.687Z,50.10
2018-02-19T12:56:30.200Z,49.70
2018-02-19T12:58:57.711Z,53.30
2018-02-19T13:01:25.220Z,49.10
2018-02-19T13:03:52.724Z,49.00
2018-02-19T13:06:20.235Z,48.00
2018-02-19T13:08:47.758Z,44.60
2018-02-19T13:11:16.032Z,43.90
2018-02-19T13:13:43.567Z,43.90
2018-02-19T13:16:11.079Z,43.00
2018-02-19T13:18:39.360Z,43.70
2018-02-19T13:21:06.873Z,43.60
2018-02-19T13:23:34.399Z,44.70
2018-02-19T13:26:01.918Z,44.20
2018-02-19T13:28:30.254Z,43.50
2018-02-19T13:30:57.768Z,43.40
2018-02-19T13:33:26.039Z,42.20
2018-02-19T13:35:54.315Z,41.90
2018-02-19T13:38:22.592Z,39.70
2018-02-19T13:40:50.878Z,39.30
2018-02-19T13:43:18.383Z,39.30
2018-02-19T13:45:45.910Z,39.60
2018-02-19T13:48:13.411Z,38.10
2018-02-19T13:50:40.920Z,37.10
2018-02-19T13:53:08.440Z,37.90
2018-02-19T13:55:35.944Z,38.40
2018-02-19T13:58:03.455Z,38.20
2018-02-19T14:00:31.027Z,37.40
2018-02-19T14:02:59.315Z,35.10
2018-02-19T14:05:26.831Z,35.00
2018-02-19T14:07:54.340Z,34.30
2018-02-19T14:10:21.852Z,32.50
2018-02-19T14:12:50.891Z,29.20
2018-02-19T14:15:18.400Z,29.10
2018-02-19T14:17:45.908Z,29.00
2018-02-19T14:20:13.431Z,28.60
2018-02-19T14:22:40.934Z,27.60
2018-02-19T14:25:08.435Z,28.40
2018-02-19T14:27:35.931Z,28.50
2018-02-19T14:30:04.278Z,30.30
2018-02-19T14:32:32.563Z,30.60
2018-02-19T14:35:00.065Z,30.00
2018-02-19T14:37:27.576Z,29.60
2018-02-19T14:39:55.171Z,29.60
2018-02-19T14:42:22.695Z,28.60
2018-02-19T14:44:50.196Z,28.20
2018-02-19T14:47:17.711Z,27.70
2018-02-19T14:49:45.214Z,26.80
2018-02-19T14:52:12.727Z,26.70
2018-02-19T14:54:40.235Z,27.00
2018-02-19T14:57:07.806Z,27.60
2018-02-19T14:59:35.323Z,28.40
2018-02-19T15:02:03.612Z,28.60
2018-02-19T15:04:31.878Z,29.50
2018-02-19T15:07:00.151Z,31.20
2018-02-19T15:09:28.468Z,32.10
2018-02-19T15:11:55.983Z,32.00
2018-02-19T15:14:24.279Z,33.30
2018-02-19T15:16:51.788Z,33.20
2018-02-19T15:19:19.301Z,34.90
2018-02-19T15:21:46.823Z,35.70
2018-02-19T15:24:14.351Z,36.20
2018-02-19T15:26:41.898Z,37.40
2018-02-19T15:29:09.431Z,39.60
2018-02-19T15:31:37.696Z,43.00
2018-02-19T15:34:05.955Z,44.70
2018-02-19T15:36:33.451Z,44.70
2018-02-19T15:39:00.997Z,45.80
2018-02-19T15:41:29.263Z,47.50
2018-02-19T15:43:57.527Z,48.50
2018-02-19T15:46:25.015Z,48.50
2018-02-19T15:48:52.537Z,49.20
2018-02-19T15:51:20.807Z,50.10
2018-02-19T15:53:48.312Z,50.10
2018-02-19T15:56:15.805Z,50.60
2018-02-19T15:58:43.315Z,51.30
2018-02-19T16:01:11.592Z,52.10
2018-02-19T16:03:39.851Z,52.50
2018-02-19T16:06:08.156Z,52.80
2018-02-19T16:08:35.671Z,52.90
2018-02-19T16:11:03.159Z,53.30
2018-02-19T16:13:31.442Z,53.50
2018-02-19T16:15:59.707Z,53.80
2018-02-19T16:18:27.967Z,54.10
2018-02-19T16:20:55.462Z,54.10
2018-02-19T16:23:22.955Z,54.60
2018-02-19T16:25:50.467Z,54.80
2018-02-19T16:28:18.730Z,55.50
2018-02-19T16:30:46.999Z,55.80
2018-02-19T16:33:14.511Z,55.80
2018-02-19T16:35:42.003Z,56.10
2018-02-19T16:38:09.502Z,56.40
2018-02-19T16:40:37.782Z,57.00
2018-02-19T16:43:05.277Z,57.00
2018-02-19T16:45:32.775Z,57.20
2018-02-19T16:48:01.056Z,57.90
2018-02-19T16:50:29.332Z,58.10
2018-02-19T16:52:57.603Z,58.30
2018-02-19T16:55:25.879Z,58.60
2018-02-19T16:57:54.155Z,59.50
2018-02-19T17:00:22.420Z,60.60
2018-02-19T17:02:49.926Z,60.60
2018-02-19T17:05:17.459Z,60.30
2018-02-19T17:07:45.721Z,59.90
2018-02-19T17:10:13.232Z,59.80
2018-02-19T17:12:40.751Z,59.90
2018-02-19T17:15:09.008Z,60.10
2018-02-19T17:17:36.502Z,60.00
2018-02-19T17:20:03.999Z,60.40
2018-02-19T17:22:31.551Z,60.50
2018-02-19T17:24:59.047Z,61.50
2018-02-19T17:27:26.538Z,61.00
2018-02-19T17:29:54.047Z,61.20
2018-02-19T17:32:21.568Z,61.40
2018-02-19T17:34:50.007Z,61.70
2018-02-19T17:37:18.290Z,62.00
2018-02-19T17:39:46.551Z,62.30
2018-02-19T17:42:14.078Z,62.20
2018-02-19T17:44:41.579Z,62.40
2018-02-19T17:47:09.867Z,62.00
2018-02-19T17:49:38.131Z,61.70
2018-02-19T17:52:06.421Z,61.70
2018-02-19T17:54:34.691Z,61.80
2018-02-19T17:57:02.967Z,61.80
2018-02-19T17:59:31.235Z,61.90
2018-02-19T18:01:59.511Z,62.00
2018-02-19T18:04:27.780Z,62.30
2018-02-19T18:06:56.055Z,62.90
2018-02-19T18:09:23.627Z,62.70
2018-02-19T18:11:51.882Z,63.10
2018-02-19T18:14:19.398Z,63.00
2018-02-19T18:16:46.908Z,63.20
2018-02-19T18:19:15.271Z,63.50
2018-02-19T18:21:42.780Z,63.50
2018-02-19T18:24:10.275Z,63.60
2018-02-19T18:26:37.787Z,63.60
2018-02-19T18:29:06.043Z,63.50
2018-02-19T18:31:33.555Z,63.60
2018-02-19T18:34:01.063Z,63.80
2018-02-19T18:36:29.347Z,63.50
2018-02-19T18:38:57.613Z,63.70
2018-02-19T18:41:25.904Z,64.70
2018-02-19T18:43:54.183Z,63.70
2018-02-19T18:46:22.447Z,63.80
2018-02-19T18:48:50.712Z,63.90
2018-02-19T18:51:18.203Z,63.80
2018-02-19T18:53:45.696Z,63.80
2018-02-19T18:56:13.203Z,63.60
2018-02-19T18:58:41.464Z,63.90
2018-02-19T19:01:08.961Z,63.80
2018-02-19T19:03:36.451Z,64.00
2018-02-19T19:06:03.952Z,64.10
2018-02-19T19:08:44.927Z,63.90
2018-02-19T19:11:13.200Z,63.90
2018-02-19T19:16:24.200Z,63.90
2018-02-19T19:18:51.712Z,63.80
2018-02-19T19:21:19.245Z,63.80
2018-02-19T19:23:46.772Z,63.70
2018-02-19T19:26:15.029Z,63.90
2018-02-19T19:28:42.534Z,63.80
2018-02-19T19:31:10.032Z,63.80
2018-02-19T19:33:37.527Z,63.90
2018-02-19T19:36:05.794Z,64.10
2018-02-19T19:38:34.063Z,64.20
2018-02-19T19:41:01.561Z,64.10
2018-02-19T19:43:29.057Z,64.30
2018-02-19T19:45:56.577Z,64.40
2018-02-19T19:48:24.087Z,64.50
2018-02-19T19:50:51.604Z,64.80
2018-02-19T19:53:19.103Z,65.20
2018-02-19T19:55:46.597Z,65.40
2018-02-19T19:58:14.113Z,65.70
2018-02-19T20:00:41.679Z,66.10
2018-02-19T20:03:09.135Z,66.30
2018-02-19T20:05:36.646Z,66.70
2018-02-19T20:08:04.135Z,67.20
2018-02-19T20:10:31.641Z,67.60
2018-02-19T20:12:59.918Z,68.10
2018-02-19T20:15:28.180Z,68.10
2018-02-19T20:17:56.448Z,68.30
2018-02-19T20:20:23.955Z,68.30
2018-02-19T20:22:51.453Z,68.30
2018-02-19T20:25:18.961Z,68.40
2018-02-19T20:27:46.499Z,68.40
2018-02-19T20:30:14.752Z,68.50
2018-02-19T20:32:42.247Z,68.50
2018-02-19T20:35:09.743Z,68.60
2018-02-19T20:37:37.255Z,68.80
2018-02-19T20:40:05.522Z,68.90
2018-02-19T20:42:33.783Z,69.10
2018-02-19T20:45:01.275Z,69.10
2018-02-19T20:47:28.792Z,69.10
2018-02-19T20:49:56.339Z,69.20
2018-02-19T20:52:23.852Z,69.40
2018-02-19T20:54:51.346Z,69.60
2018-02-19T20:57:18.839Z,69.90
2018-02-19T20:59:47.111Z,70.90
2018-02-19T21:02:14.615Z,70.10
2018-02-19T21:04:42.123Z,70.20
2018-02-19T21:07:09.628Z,70.20
2018-02-19T21:09:37.163Z,70.20
2018-02-19T21:12:05.443Z,70.40
2018-02-19T21:14:33.699Z,70.30
2018-02-19T21:17:01.218Z,70.30
2018-02-19T21:19:28.730Z,70.30
2018-02-19T21:21:57.095Z,70.20
2018-02-19T21:24:25.371Z,70.20
2018-02-19T21:26:53.657Z,70.10
2018-02-19T21:29:21.927Z,70.10
2018-02-19T21:31:50.195Z,70.10
2018-02-19T21:34:17.691Z,69.90
2018-02-19T21:36:45.196Z,70.00
2018-02-19T21:39:12.695Z,70.00
2018-02-19T21:41:40.958Z,70.00
2018-02-19T21:44:09.247Z,70.20
2018-02-19T21:46:37.523Z,70.40
2018-02-19T21:49:05.784Z,70.60
2018-02-19T21:51:34.180Z,70.90
2018-02-19T21:54:02.439Z,70.90
2018-02-19T21:56:30.702Z,71.00
2018-02-19T21:58:58.200Z,70.90
2018-02-19T22:01:25.831Z,70.90
2018-02-19T22:03:53.319Z,70.70
2018-02-19T22:06:20.814Z,70.70
2018-02-19T22:08:48.314Z,70.60
2018-02-19T22:11:16.592Z,70.60
2018-02-19T22:13:44.856Z,70.50
2018-02-19T22:16:12.364Z,70.40
2018-02-19T22:18:39.863Z,71.00
2018-02-19T22:21:08.500Z,70.30
2018-02-19T22:23:36.012Z,70.40
2018-02-19T22:26:03.501Z,70.30
2018-02-19T22:28:31.002Z,70.30
2018-02-19T22:30:58.511Z,70.20
2018-02-19T22:33:26.770Z,70.00
2018-02-19T22:35:55.048Z,69.90
2018-02-19T22:38:23.319Z,69.80
2018-02-19T22:40:50.821Z,69.80
2018-02-19T22:43:18.315Z,69.70
2018-02-19T22:45:45.811Z,69.70
2018-02-19T22:48:14.075Z,70.00
2018-02-19T22:50:42.339Z,70.00
2018-02-19T22:53:09.847Z,70.00
2018-02-19T22:55:37.356Z,70.00
2018-02-19T22:58:04.863Z,69.90
2018-02-19T23:00:32.359Z,69.70
2018-02-19T23:02:59.851Z,70.40
2018-02-19T23:05:28.110Z,69.70
2018-02-19T23:07:56.371Z,70.40
2018-02-19T23:10:23.867Z,69.80
2018-02-19T23:12:52.136Z,69.70
2018-02-19T23:15:20.392Z,70.20
2018-02-19T23:17:49.411Z,70.20
2018-02-19T23:20:17.670Z,70.40
2018-02-19T23:22:45.167Z,70.40
2018-02-19T23:25:12.666Z,70.40
2018-02-19T23:27:40.181Z,70.30
2018-02-19T23:30:07.676Z,70.20
2018-02-19T23:32:35.179Z,70.10
2018-02-19T23:35:03.452Z,70.20
2018-02-19T23:37:31.711Z,70.20
2018-02-19T23:39:59.314Z,70.10
2018-02-19T23:42:26.877Z,70.90
2018-02-19T23:44:55.103Z,70.10
2018-02-19T23:47:22.603Z,70.00
2018-02-19T23:49:50.115Z,70.00
2018-02-19T23:52:19.118Z,70.20
2018-02-19T23:54:46.619Z,70.20
2018-02-19T23:57:14.147Z,70.30
2018-02-19T23:59:42.407Z,70.60
